sensor_id;sensor_type;location;lat;lon;timestamp;temperature;humidity
44121;DHT22;29783;52.504;13.478;2023-07-31T00:14:24;14.80;88.50
44121;DHT22;29783;52.504;13.478;2023-07-31T00:16:50;14.80;88.80
44121;DHT22;29783;52.504;13.478;2023-07-31T00:19:15;14.80;88.90
44121;DHT22;29783;52.504;13.478;2023-07-31T00:21:41;14.80;88.90
44121;DHT22;29783;52.504;13.478;2023-07-31T00:24:07;14.80;89.00
44121;DHT22;29783;52.504;13.478;2023-07-31T00:26:32;15.00;89.10
44121;DHT22;29783;52.504;13.478;2023-07-31T00:28:58;14.90;89.30
44121;DHT22;29783;52.504;13.478;2023-07-31T00:31:24;14.90;89.30
44121;DHT22;29783;52.504;13.478;2023-07-31T00:33:49;14.90;89.20
44121;DHT22;29783;52.504;13.478;2023-07-31T00:36:15;14.90;89.60
44121;DHT22;29783;52.504;13.478;2023-07-31T00:38:41;14.90;89.70
44121;DHT22;29783;52.504;13.478;2023-07-31T00:41:06;14.80;89.90
44121;DHT22;29783;52.504;13.478;2023-07-31T00:43:32;14.80;90.30
44121;DHT22;29783;52.504;13.478;2023-07-31T00:45:58;14.80;90.30
44121;DHT22;29783;52.504;13.478;2023-07-31T00:48:23;14.80;90.60
44121;DHT22;29783;52.504;13.478;2023-07-31T00:50:50;14.90;90.60
44121;DHT22;29783;52.504;13.478;2023-07-31T00:53:16;14.90;90.40
44121;DHT22;29783;52.504;13.478;2023-07-31T00:55:42;14.90;90.30
44121;DHT22;29783;52.504;13.478;2023-07-31T00:58:08;15.00;90.30
44121;DHT22;29783;52.504;13.478;2023-07-31T01:00:35;15.10;90.10
44121;DHT22;29783;52.504;13.478;2023-07-31T01:03:01;15.10;89.80
44121;DHT22;29783;52.504;13.478;2023-07-31T01:08:18;15.10;89.80
44121;DHT22;29783;52.504;13.478;2023-07-31T01:10:57;15.20;89.70
44121;DHT22;29783;52.504;13.478;2023-07-31T01:13:25;15.20;89.90
44121;DHT22;29783;52.504;13.478;2023-07-31T01:15:52;15.20;90.00
44121;DHT22;29783;52.504;13.478;2023-07-31T01:18:17;15.20;89.70
44121;DHT22;29783;52.504;13.478;2023-07-31T01:20:48;15.30;89.80
44121;DHT22;29783;52.504;13.478;2023-07-31T01:23:50;15.30;90.20
44121;DHT22;29783;52.504;13.478;2023-07-31T01:26:23;15.30;90.10
44121;DHT22;29783;52.504;13.478;2023-07-31T01:29:00;15.30;90.00
44121;DHT22;29783;52.504;13.478;2023-07-31T01:31:29;15.30;89.80
44121;DHT22;29783;52.504;13.478;2023-07-31T01:34:00;15.40;90.00
44121;DHT22;29783;52.504;13.478;2023-07-31T01:36:26;15.40;90.10
44121;DHT22;29783;52.504;13.478;2023-07-31T01:38:52;15.40;89.70
44121;DHT22;29783;52.504;13.478;2023-07-31T01:41:19;15.40;89.60
44121;DHT22;29783;52.504;13.478;2023-07-31T01:43:46;15.40;89.70
44121;DHT22;29783;52.504;13.478;2023-07-31T01:46:12;15.40;89.80
44121;DHT22;29783;52.504;13.478;2023-07-31T01:48:38;15.40;90.10
44121;DHT22;29783;52.504;13.478;2023-07-31T01:51:04;15.40;90.30
44121;DHT22;29783;52.504;13.478;2023-07-31T01:53:33;15.40;89.90
44121;DHT22;29783;52.504;13.478;2023-07-31T01:55:59;15.50;90.20
44121;DHT22;29783;52.504;13.478;2023-07-31T01:58:24;15.50;90.10
44121;DHT22;29783;52.504;13.478;2023-07-31T02:00:50;15.50;89.60
44121;DHT22;29783;52.504;13.478;2023-07-31T02:03:15;15.50;89.80
44121;DHT22;29783;52.504;13.478;2023-07-31T02:05:48;15.50;89.80
44121;DHT22;29783;52.504;13.478;2023-07-31T02:08:14;15.60;90.40
44121;DHT22;29783;52.504;13.478;2023-07-31T02:10:40;15.60;90.10
44121;DHT22;29783;52.504;13.478;2023-07-31T02:13:06;15.60;90.00
44121;DHT22;29783;52.504;13.478;2023-07-31T02:15:32;15.60;89.90
44121;DHT22;29783;52.504;13.478;2023-07-31T02:17:58;15.50;89.90
44121;DHT22;29783;52.504;13.478;2023-07-31T02:20:24;15.60;90.00
44121;DHT22;29783;52.504;13.478;2023-07-31T02:22:50;15.60;90.30
44121;DHT22;29783;52.504;13.478;2023-07-31T02:25:16;15.60;90.40
44121;DHT22;29783;52.504;13.478;2023-07-31T02:27:42;15.60;90.60
44121;DHT22;29783;52.504;13.478;2023-07-31T02:30:08;15.60;90.80
44121;DHT22;29783;52.504;13.478;2023-07-31T02:32:34;15.60;91.00
44121;DHT22;29783;52.504;13.478;2023-07-31T02:35:00;15.60;91.00
44121;DHT22;29783;52.504;13.478;2023-07-31T02:37:25;15.70;91.00
44121;DHT22;29783;52.504;13.478;2023-07-31T02:39:51;15.70;91.10
44121;DHT22;29783;52.504;13.478;2023-07-31T02:42:17;15.60;90.70
44121;DHT22;29783;52.504;13.478;2023-07-31T02:44:44;15.70;90.30
44121;DHT22;29783;52.504;13.478;2023-07-31T02:54:55;15.70;89.90
44121;DHT22;29783;52.504;13.478;2023-07-31T02:57:21;15.70;90.00
44121;DHT22;29783;52.504;13.478;2023-07-31T02:59:47;15.70;90.10
44121;DHT22;29783;52.504;13.478;2023-07-31T03:02:12;15.70;90.50
44121;DHT22;29783;52.504;13.478;2023-07-31T03:04:38;15.60;90.40
44121;DHT22;29783;52.504;13.478;2023-07-31T03:07:04;15.60;90.50
44121;DHT22;29783;52.504;13.478;2023-07-31T03:09:30;15.60;90.50
44121;DHT22;29783;52.504;13.478;2023-07-31T03:11:56;15.60;90.70
44121;DHT22;29783;52.504;13.478;2023-07-31T03:14:21;15.60;90.50
44121;DHT22;29783;52.504;13.478;2023-07-31T03:16:48;15.60;90.40
44121;DHT22;29783;52.504;13.478;2023-07-31T03:19:14;15.60;90.50
44121;DHT22;29783;52.504;13.478;2023-07-31T03:21:40;15.60;90.80
44121;DHT22;29783;52.504;13.478;2023-07-31T03:24:08;15.60;90.70
44121;DHT22;29783;52.504;13.478;2023-07-31T03:26:33;15.70;90.80
44121;DHT22;29783;52.504;13.478;2023-07-31T03:28:59;15.60;90.70
44121;DHT22;29783;52.504;13.478;2023-07-31T03:31:25;15.60;90.80
44121;DHT22;29783;52.504;13.478;2023-07-31T03:33:50;15.50;90.90
44121;DHT22;29783;52.504;13.478;2023-07-31T03:36:16;15.50;91.00
44121;DHT22;29783;52.504;13.478;2023-07-31T03:38:43;15.50;91.00
44121;DHT22;29783;52.504;13.478;2023-07-31T03:41:08;15.50;91.00
44121;DHT22;29783;52.504;13.478;2023-07-31T03:43:36;15.50;91.00
44121;DHT22;29783;52.504;13.478;2023-07-31T03:46:01;15.60;90.90
44121;DHT22;29783;52.504;13.478;2023-07-31T03:48:28;15.60;90.80
44121;DHT22;29783;52.504;13.478;2023-07-31T03:50:53;15.60;90.90
44121;DHT22;29783;52.504;13.478;2023-07-31T03:53:19;15.60;90.90
44121;DHT22;29783;52.504;13.478;2023-07-31T03:55:46;15.60;91.00
44121;DHT22;29783;52.504;13.478;2023-07-31T03:58:11;15.60;90.70
44121;DHT22;29783;52.504;13.478;2023-07-31T04:00:37;15.60;91.00
44121;DHT22;29783;52.504;13.478;2023-07-31T04:03:03;15.60;90.90
44121;DHT22;29783;52.504;13.478;2023-07-31T04:05:32;15.60;90.80
44121;DHT22;29783;52.504;13.478;2023-07-31T04:07:58;15.60;90.80
44121;DHT22;29783;52.504;13.478;2023-07-31T04:10:24;15.70;90.80
44121;DHT22;29783;52.504;13.478;2023-07-31T04:12:49;15.70;90.60
44121;DHT22;29783;52.504;13.478;2023-07-31T04:15:15;15.70;90.60
44121;DHT22;29783;52.504;13.478;2023-07-31T04:17:41;15.70;90.20
44121;DHT22;29783;52.504;13.478;2023-07-31T04:20:07;15.80;90.20
44121;DHT22;29783;52.504;13.478;2023-07-31T04:22:33;15.80;90.20
44121;DHT22;29783;52.504;13.478;2023-07-31T04:24:59;15.80;90.30
44121;DHT22;29783;52.504;13.478;2023-07-31T04:27:25;15.90;90.30
44121;DHT22;29783;52.504;13.478;2023-07-31T04:29:50;15.90;89.80
44121;DHT22;29783;52.504;13.478;2023-07-31T04:32:18;16.00;89.50
44121;DHT22;29783;52.504;13.478;2023-07-31T04:34:46;16.00;89.30
44121;DHT22;29783;52.504;13.478;2023-07-31T04:37:12;16.00;89.10
44121;DHT22;29783;52.504;13.478;2023-07-31T04:39:37;16.10;89.40
44121;DHT22;29783;52.504;13.478;2023-07-31T04:42:03;16.10;88.90
44121;DHT22;29783;52.504;13.478;2023-07-31T04:44:29;16.10;89.00
44121;DHT22;29783;52.504;13.478;2023-07-31T04:46:55;16.10;88.90
44121;DHT22;29783;52.504;13.478;2023-07-31T04:49:21;16.10;89.00
44121;DHT22;29783;52.504;13.478;2023-07-31T04:51:47;16.10;88.90
44121;DHT22;29783;52.504;13.478;2023-07-31T04:54:13;16.20;89.00
44121;DHT22;29783;52.504;13.478;2023-07-31T04:56:42;16.20;88.90
44121;DHT22;29783;52.504;13.478;2023-07-31T04:59:07;16.20;89.00
44121;DHT22;29783;52.504;13.478;2023-07-31T05:01:33;16.10;89.20
44121;DHT22;29783;52.504;13.478;2023-07-31T05:03:59;16.20;89.20
44121;DHT22;29783;52.504;13.478;2023-07-31T05:06:24;16.20;89.30
44121;DHT22;29783;52.504;13.478;2023-07-31T05:08:50;16.30;89.00
44121;DHT22;29783;52.504;13.478;2023-07-31T05:11:16;16.20;88.80
44121;DHT22;29783;52.504;13.478;2023-07-31T05:13:41;16.30;88.60
44121;DHT22;29783;52.504;13.478;2023-07-31T05:16:07;16.40;88.40
44121;DHT22;29783;52.504;13.478;2023-07-31T05:18:33;16.50;88.30
44121;DHT22;29783;52.504;13.478;2023-07-31T05:20:59;16.70;87.60
44121;DHT22;29783;52.504;13.478;2023-07-31T05:23:25;16.60;87.50
44121;DHT22;29783;52.504;13.478;2023-07-31T05:25:50;16.70;87.60
44121;DHT22;29783;52.504;13.478;2023-07-31T05:28:16;16.70;87.50
44121;DHT22;29783;52.504;13.478;2023-07-31T05:30:43;16.80;86.90
44121;DHT22;29783;52.504;13.478;2023-07-31T05:33:08;16.80;87.10
44121;DHT22;29783;52.504;13.478;2023-07-31T05:35:34;16.80;86.60
44121;DHT22;29783;52.504;13.478;2023-07-31T05:37:59;16.90;86.80
44121;DHT22;29783;52.504;13.478;2023-07-31T05:40:26;16.90;86.90
44121;DHT22;29783;52.504;13.478;2023-07-31T05:42:52;16.90;86.90
44121;DHT22;29783;52.504;13.478;2023-07-31T05:45:18;16.80;86.70
44121;DHT22;29783;52.504;13.478;2023-07-31T05:47:43;16.80;87.00
44121;DHT22;29783;52.504;13.478;2023-07-31T05:50:09;16.80;87.30
44121;DHT22;29783;52.504;13.478;2023-07-31T05:52:35;16.70;87.40
44121;DHT22;29783;52.504;13.478;2023-07-31T05:55:01;16.90;87.30
44121;DHT22;29783;52.504;13.478;2023-07-31T05:57:26;16.80;87.20
44121;DHT22;29783;52.504;13.478;2023-07-31T05:59:54;16.80;87.10
44121;DHT22;29783;52.504;13.478;2023-07-31T06:02:20;16.90;87.50
44121;DHT22;29783;52.504;13.478;2023-07-31T06:04:46;16.90;87.10
44121;DHT22;29783;52.504;13.478;2023-07-31T06:07:12;17.00;86.80
44121;DHT22;29783;52.504;13.478;2023-07-31T06:09:37;17.10;86.60
44121;DHT22;29783;52.504;13.478;2023-07-31T06:12:03;17.10;86.00
44121;DHT22;29783;52.504;13.478;2023-07-31T06:14:32;17.20;85.90
44121;DHT22;29783;52.504;13.478;2023-07-31T06:16:57;17.10;86.10
44121;DHT22;29783;52.504;13.478;2023-07-31T06:19:23;17.20;85.60
44121;DHT22;29783;52.504;13.478;2023-07-31T06:21:49;17.20;85.80
44121;DHT22;29783;52.504;13.478;2023-07-31T06:24:16;17.20;86.30
44121;DHT22;29783;52.504;13.478;2023-07-31T06:26:44;17.20;86.00
44121;DHT22;29783;52.504;13.478;2023-07-31T06:29:10;17.30;85.80
44121;DHT22;29783;52.504;13.478;2023-07-31T06:31:37;17.40;85.80
44121;DHT22;29783;52.504;13.478;2023-07-31T06:34:02;17.40;85.80
44121;DHT22;29783;52.504;13.478;2023-07-31T06:36:28;17.40;85.90
44121;DHT22;29783;52.504;13.478;2023-07-31T06:38:54;17.60;85.30
44121;DHT22;29783;52.504;13.478;2023-07-31T06:41:19;17.60;84.90
44121;DHT22;29783;52.504;13.478;2023-07-31T06:43:46;17.70;85.30
44121;DHT22;29783;52.504;13.478;2023-07-31T06:46:13;17.70;85.00
44121;DHT22;29783;52.504;13.478;2023-07-31T06:48:39;17.70;85.10
44121;DHT22;29783;52.504;13.478;2023-07-31T06:51:05;17.90;84.40
44121;DHT22;29783;52.504;13.478;2023-07-31T06:53:30;17.90;84.70
44121;DHT22;29783;52.504;13.478;2023-07-31T06:55:57;17.90;84.60
44121;DHT22;29783;52.504;13.478;2023-07-31T06:58:24;18.10;83.90
44121;DHT22;29783;52.504;13.478;2023-07-31T07:00:50;18.20;83.40
44121;DHT22;29783;52.504;13.478;2023-07-31T07:03:18;18.20;82.70
44121;DHT22;29783;52.504;13.478;2023-07-31T07:05:44;18.20;82.50
44121;DHT22;29783;52.504;13.478;2023-07-31T07:08:10;18.10;82.10
44121;DHT22;29783;52.504;13.478;2023-07-31T07:10:35;18.10;82.70
44121;DHT22;29783;52.504;13.478;2023-07-31T07:13:02;18.10;82.80
44121;DHT22;29783;52.504;13.478;2023-07-31T07:15:28;17.90;83.10
44121;DHT22;29783;52.504;13.478;2023-07-31T07:17:54;17.90;83.30
44121;DHT22;29783;52.504;13.478;2023-07-31T07:20:20;17.70;83.60
44121;DHT22;29783;52.504;13.478;2023-07-31T07:22:46;17.70;84.10
44121;DHT22;29783;52.504;13.478;2023-07-31T07:25:11;17.60;84.70
44121;DHT22;29783;52.504;13.478;2023-07-31T07:27:37;17.50;85.30
44121;DHT22;29783;52.504;13.478;2023-07-31T07:30:03;17.70;84.60
44121;DHT22;29783;52.504;13.478;2023-07-31T07:32:29;17.70;84.50
44121;DHT22;29783;52.504;13.478;2023-07-31T07:34:55;17.90;84.30
44121;DHT22;29783;52.504;13.478;2023-07-31T07:37:23;18.20;83.70
44121;DHT22;29783;52.504;13.478;2023-07-31T07:39:48;18.20;83.20
44121;DHT22;29783;52.504;13.478;2023-07-31T07:42:14;18.20;83.10
44121;DHT22;29783;52.504;13.478;2023-07-31T07:44:40;18.20;83.10
44121;DHT22;29783;52.504;13.478;2023-07-31T07:47:05;18.30;83.20
44121;DHT22;29783;52.504;13.478;2023-07-31T08:05:36;18.80;80.70
44121;DHT22;29783;52.504;13.478;2023-07-31T08:08:05;18.70;81.40
44121;DHT22;29783;52.504;13.478;2023-07-31T08:10:32;18.60;81.40
44121;DHT22;29783;52.504;13.478;2023-07-31T08:12:57;18.70;81.90
44121;DHT22;29783;52.504;13.478;2023-07-31T08:15:23;18.80;81.50
44121;DHT22;29783;52.504;13.478;2023-07-31T08:17:49;18.70;81.80
44121;DHT22;29783;52.504;13.478;2023-07-31T08:20:15;18.60;81.70
44121;DHT22;29783;52.504;13.478;2023-07-31T08:22:40;18.50;82.80
44121;DHT22;29783;52.504;13.478;2023-07-31T08:25:07;18.40;82.90
44121;DHT22;29783;52.504;13.478;2023-07-31T08:27:33;18.30;82.90
44121;DHT22;29783;52.504;13.478;2023-07-31T08:29:59;18.30;83.70
44121;DHT22;29783;52.504;13.478;2023-07-31T08:32:26;18.50;83.60
44121;DHT22;29783;52.504;13.478;2023-07-31T08:34:52;18.80;83.10
44121;DHT22;29783;52.504;13.478;2023-07-31T08:37:18;19.00;82.60
44121;DHT22;29783;52.504;13.478;2023-07-31T08:39:44;19.10;82.50
44121;DHT22;29783;52.504;13.478;2023-07-31T08:42:09;19.00;82.00
44121;DHT22;29783;52.504;13.478;2023-07-31T08:44:36;18.80;82.60
44121;DHT22;29783;52.504;13.478;2023-07-31T08:47:04;18.70;83.60
44121;DHT22;29783;52.504;13.478;2023-07-31T08:49:30;18.60;83.30
44121;DHT22;29783;52.504;13.478;2023-07-31T08:51:57;18.60;83.90
44121;DHT22;29783;52.504;13.478;2023-07-31T08:54:24;18.70;83.20
44121;DHT22;29783;52.504;13.478;2023-07-31T08:56:53;18.90;83.00
44121;DHT22;29783;52.504;13.478;2023-07-31T08:59:19;19.20;82.00
44121;DHT22;29783;52.504;13.478;2023-07-31T09:01:50;19.30;81.00
44121;DHT22;29783;52.504;13.478;2023-07-31T09:04:19;19.20;81.00
44121;DHT22;29783;52.504;13.478;2023-07-31T09:06:46;19.30;81.10
44121;DHT22;29783;52.504;13.478;2023-07-31T09:09:13;19.30;81.10
44121;DHT22;29783;52.504;13.478;2023-07-31T09:11:39;19.10;80.80
44121;DHT22;29783;52.504;13.478;2023-07-31T09:14:07;19.10;80.90
44121;DHT22;29783;52.504;13.478;2023-07-31T09:16:34;19.20;81.10
44121;DHT22;29783;52.504;13.478;2023-07-31T09:19:01;19.20;80.20
44121;DHT22;29783;52.504;13.478;2023-07-31T09:21:28;19.20;80.60
44121;DHT22;29783;52.504;13.478;2023-07-31T09:23:54;19.10;81.10
44121;DHT22;29783;52.504;13.478;2023-07-31T09:28:57;19.00;81.30
44121;DHT22;29783;52.504;13.478;2023-07-31T09:31:53;19.00;81.70
44121;DHT22;29783;52.504;13.478;2023-07-31T09:34:19;19.20;81.30
44121;DHT22;29783;52.504;13.478;2023-07-31T09:36:47;19.00;80.60
44121;DHT22;29783;52.504;13.478;2023-07-31T09:39:14;18.70;81.60
44121;DHT22;29783;52.504;13.478;2023-07-31T09:41:54;18.50;82.80
44121;DHT22;29783;52.504;13.478;2023-07-31T09:44:21;18.20;83.70
44121;DHT22;29783;52.504;13.478;2023-07-31T09:46:47;18.00;85.10
44121;DHT22;29783;52.504;13.478;2023-07-31T09:49:14;18.00;86.00
44121;DHT22;29783;52.504;13.478;2023-07-31T09:51:41;18.00;85.20
44121;DHT22;29783;52.504;13.478;2023-07-31T09:54:15;18.10;85.20
44121;DHT22;29783;52.504;13.478;2023-07-31T09:56:43;18.20;85.10
44121;DHT22;29783;52.504;13.478;2023-07-31T09:59:15;18.30;83.90
44121;DHT22;29783;52.504;13.478;2023-07-31T10:01:42;18.40;83.70
44121;DHT22;29783;52.504;13.478;2023-07-31T10:04:09;18.50;83.10
44121;DHT22;29783;52.504;13.478;2023-07-31T10:06:35;18.60;82.50
44121;DHT22;29783;52.504;13.478;2023-07-31T10:09:03;18.80;82.10
44121;DHT22;29783;52.504;13.478;2023-07-31T10:11:36;19.00;81.50
44121;DHT22;29783;52.504;13.478;2023-07-31T10:14:05;19.10;81.50
44121;DHT22;29783;52.504;13.478;2023-07-31T10:16:32;19.30;80.60
44121;DHT22;29783;52.504;13.478;2023-07-31T10:18:58;19.50;79.40
44121;DHT22;29783;52.504;13.478;2023-07-31T10:21:24;19.70;78.90
44121;DHT22;29783;52.504;13.478;2023-07-31T10:23:50;19.70;79.00
44121;DHT22;29783;52.504;13.478;2023-07-31T10:26:19;19.50;79.20
44121;DHT22;29783;52.504;13.478;2023-07-31T10:28:47;19.40;79.40
44121;DHT22;29783;52.504;13.478;2023-07-31T10:31:13;19.30;80.10
44121;DHT22;29783;52.504;13.478;2023-07-31T10:33:40;19.20;80.70
44121;DHT22;29783;52.504;13.478;2023-07-31T10:36:19;19.10;82.00
44121;DHT22;29783;52.504;13.478;2023-07-31T10:38:49;19.10;83.00
44121;DHT22;29783;52.504;13.478;2023-07-31T10:41:17;19.00;82.80
44121;DHT22;29783;52.504;13.478;2023-07-31T10:43:43;19.20;81.90
44121;DHT22;29783;52.504;13.478;2023-07-31T10:46:12;19.50;80.80
44121;DHT22;29783;52.504;13.478;2023-07-31T10:48:40;19.60;80.00
44121;DHT22;29783;52.504;13.478;2023-07-31T10:51:13;20.00;80.00
44121;DHT22;29783;52.504;13.478;2023-07-31T10:53:40;20.40;78.50
44121;DHT22;29783;52.504;13.478;2023-07-31T10:56:08;21.30;76.80
44121;DHT22;29783;52.504;13.478;2023-07-31T10:58:34;22.00;72.70
44121;DHT22;29783;52.504;13.478;2023-07-31T11:01:03;22.40;70.60
44121;DHT22;29783;52.504;13.478;2023-07-31T11:03:45;22.30;70.30
44121;DHT22;29783;52.504;13.478;2023-07-31T11:06:12;22.20;71.00
44121;DHT22;29783;52.504;13.478;2023-07-31T11:08:49;22.30;70.20
44121;DHT22;29783;52.504;13.478;2023-07-31T11:11:18;22.40;70.20
44121;DHT22;29783;52.504;13.478;2023-07-31T11:13:50;22.60;69.00
44121;DHT22;29783;52.504;13.478;2023-07-31T11:16:20;22.40;68.90
44121;DHT22;29783;52.504;13.478;2023-07-31T11:18:47;22.20;69.50
44121;DHT22;29783;52.504;13.478;2023-07-31T11:21:15;21.80;69.60
44121;DHT22;29783;52.504;13.478;2023-07-31T11:23:41;21.60;70.00
44121;DHT22;29783;52.504;13.478;2023-07-31T11:26:10;21.50;70.10
44121;DHT22;29783;52.504;13.478;2023-07-31T11:28:37;21.60;69.40
44121;DHT22;29783;52.504;13.478;2023-07-31T11:31:03;21.70;69.50
44121;DHT22;29783;52.504;13.478;2023-07-31T11:33:29;21.90;67.80
44121;DHT22;29783;52.504;13.478;2023-07-31T11:35:55;22.20;66.70
44121;DHT22;29783;52.504;13.478;2023-07-31T11:38:22;22.30;66.90
44121;DHT22;29783;52.504;13.478;2023-07-31T11:40:49;22.40;65.60
44121;DHT22;29783;52.504;13.478;2023-07-31T11:43:15;22.30;65.10
44121;DHT22;29783;52.504;13.478;2023-07-31T11:45:47;22.50;63.70
44121;DHT22;29783;52.504;13.478;2023-07-31T12:23:32;21.70;66.40
44121;DHT22;29783;52.504;13.478;2023-07-31T12:26:03;21.70;66.20
44121;DHT22;29783;52.504;13.478;2023-07-31T12:28:29;22.00;64.80
44121;DHT22;29783;52.504;13.478;2023-07-31T12:31:00;22.10;64.10
44121;DHT22;29783;52.504;13.478;2023-07-31T12:33:32;22.20;63.50
44121;DHT22;29783;52.504;13.478;2023-07-31T12:36:01;22.30;63.60
44121;DHT22;29783;52.504;13.478;2023-07-31T12:38:30;22.30;63.70
44121;DHT22;29783;52.504;13.478;2023-07-31T12:40:56;22.60;63.00
44121;DHT22;29783;52.504;13.478;2023-07-31T12:43:22;23.20;61.70
44121;DHT22;29783;52.504;13.478;2023-07-31T12:45:49;23.20;61.70
44121;DHT22;29783;52.504;13.478;2023-07-31T13:08:27;23.70;60.00
44121;DHT22;29783;52.504;13.478;2023-07-31T13:10:54;23.30;60.80
44121;DHT22;29783;52.504;13.478;2023-07-31T13:13:21;22.90;62.70
44121;DHT22;29783;52.504;13.478;2023-07-31T13:15:47;22.70;63.10
44121;DHT22;29783;52.504;13.478;2023-07-31T13:18:13;22.40;64.70
44121;DHT22;29783;52.504;13.478;2023-07-31T13:20:38;22.20;65.10
44121;DHT22;29783;52.504;13.478;2023-07-31T13:23:04;22.10;64.90
44121;DHT22;29783;52.504;13.478;2023-07-31T13:25:30;21.80;65.80
44121;DHT22;29783;52.504;13.478;2023-07-31T13:27:56;21.80;66.30
44121;DHT22;29783;52.504;13.478;2023-07-31T13:30:22;21.90;66.20
44121;DHT22;29783;52.504;13.478;2023-07-31T13:32:47;21.70;66.20
44121;DHT22;29783;52.504;13.478;2023-07-31T13:35:13;21.50;67.00
44121;DHT22;29783;52.504;13.478;2023-07-31T13:37:39;21.40;67.70
44121;DHT22;29783;52.504;13.478;2023-07-31T13:40:05;21.70;67.50
44121;DHT22;29783;52.504;13.478;2023-07-31T13:42:32;22.80;65.30
44121;DHT22;29783;52.504;13.478;2023-07-31T13:44:59;23.70;60.90
44121;DHT22;29783;52.504;13.478;2023-07-31T13:54:06;24.30;58.70
44121;DHT22;29783;52.504;13.478;2023-07-31T13:56:32;24.20;59.20
44121;DHT22;29783;52.504;13.478;2023-07-31T13:58:58;24.20;58.80
44121;DHT22;29783;52.504;13.478;2023-07-31T14:01:23;24.20;58.90
44121;DHT22;29783;52.504;13.478;2023-07-31T14:03:49;24.20;59.00
44121;DHT22;29783;52.504;13.478;2023-07-31T14:06:16;24.20;59.50
44121;DHT22;29783;52.504;13.478;2023-07-31T14:08:42;23.90;59.70
44121;DHT22;29783;52.504;13.478;2023-07-31T14:11:07;23.80;59.70
44121;DHT22;29783;52.504;13.478;2023-07-31T14:13:33;23.60;60.40
44121;DHT22;29783;52.504;13.478;2023-07-31T14:15:59;23.30;61.70
44121;DHT22;29783;52.504;13.478;2023-07-31T14:18:25;23.40;61.80
44121;DHT22;29783;52.504;13.478;2023-07-31T14:20:51;23.50;61.90
44121;DHT22;29783;52.504;13.478;2023-07-31T14:23:17;23.60;61.60
44121;DHT22;29783;52.504;13.478;2023-07-31T14:25:45;23.60;61.50
44121;DHT22;29783;52.504;13.478;2023-07-31T14:28:11;23.10;62.10
44121;DHT22;29783;52.504;13.478;2023-07-31T14:30:37;22.80;63.50
44121;DHT22;29783;52.504;13.478;2023-07-31T14:33:03;22.60;63.90
44121;DHT22;29783;52.504;13.478;2023-07-31T14:35:31;22.40;64.50
44121;DHT22;29783;52.504;13.478;2023-07-31T14:37:56;22.40;64.60
44121;DHT22;29783;52.504;13.478;2023-07-31T14:40:22;22.60;64.70
44121;DHT22;29783;52.504;13.478;2023-07-31T14:42:48;22.80;63.50
44121;DHT22;29783;52.504;13.478;2023-07-31T14:45:13;23.00;63.30
44121;DHT22;29783;52.504;13.478;2023-07-31T15:07:09;22.50;63.50
44121;DHT22;29783;52.504;13.478;2023-07-31T15:09:36;22.40;64.00
44121;DHT22;29783;52.504;13.478;2023-07-31T15:12:02;22.30;64.30
44121;DHT22;29783;52.504;13.478;2023-07-31T15:14:28;22.20;64.80
44121;DHT22;29783;52.504;13.478;2023-07-31T15:16:57;22.20;65.00
44121;DHT22;29783;52.504;13.478;2023-07-31T15:19:22;22.20;65.20
44121;DHT22;29783;52.504;13.478;2023-07-31T15:21:50;22.00;66.50
44121;DHT22;29783;52.504;13.478;2023-07-31T15:24:16;21.80;67.60
44121;DHT22;29783;52.504;13.478;2023-07-31T15:26:43;21.70;67.80
44121;DHT22;29783;52.504;13.478;2023-07-31T15:29:09;21.70;69.00
44121;DHT22;29783;52.504;13.478;2023-07-31T15:31:40;21.70;69.50
44121;DHT22;29783;52.504;13.478;2023-07-31T15:34:06;21.70;69.80
44121;DHT22;29783;52.504;13.478;2023-07-31T15:36:32;21.70;69.50
44121;DHT22;29783;52.504;13.478;2023-07-31T15:38:58;21.70;68.40
44121;DHT22;29783;52.504;13.478;2023-07-31T15:41:27;21.80;68.80
44121;DHT22;29783;52.504;13.478;2023-07-31T15:43:55;21.90;68.70
44121;DHT22;29783;52.504;13.478;2023-07-31T15:46:21;22.10;68.00
44121;DHT22;29783;52.504;13.478;2023-07-31T16:18:26;21.80;70.80
44121;DHT22;29783;52.504;13.478;2023-07-31T16:20:52;21.70;70.40
44121;DHT22;29783;52.504;13.478;2023-07-31T16:23:17;21.70;70.60
44121;DHT22;29783;52.504;13.478;2023-07-31T16:25:43;21.50;70.40
44121;DHT22;29783;52.504;13.478;2023-07-31T16:28:09;21.50;70.70
44121;DHT22;29783;52.504;13.478;2023-07-31T16:30:37;21.40;70.50
44121;DHT22;29783;52.504;13.478;2023-07-31T16:33:12;21.40;70.20
44121;DHT22;29783;52.504;13.478;2023-07-31T16:35:40;21.40;70.10
44121;DHT22;29783;52.504;13.478;2023-07-31T16:38:06;21.40;70.20
44121;DHT22;29783;52.504;13.478;2023-07-31T16:40:32;21.40;70.20
44121;DHT22;29783;52.504;13.478;2023-07-31T16:42:58;21.50;69.50
44121;DHT22;29783;52.504;13.478;2023-07-31T16:45:24;21.50;68.70
44121;DHT22;29783;52.504;13.478;2023-07-31T16:47:50;21.60;67.50
44121;DHT22;29783;52.504;13.478;2023-07-31T16:50:17;21.60;67.90
44121;DHT22;29783;52.504;13.478;2023-07-31T16:52:49;21.60;67.00
44121;DHT22;29783;52.504;13.478;2023-07-31T16:55:16;21.60;66.90
44121;DHT22;29783;52.504;13.478;2023-07-31T16:57:42;21.70;66.60
44121;DHT22;29783;52.504;13.478;2023-07-31T17:00:10;21.60;67.20
44121;DHT22;29783;52.504;13.478;2023-07-31T17:02:36;21.70;66.80
44121;DHT22;29783;52.504;13.478;2023-07-31T17:05:01;21.70;66.30
44121;DHT22;29783;52.504;13.478;2023-07-31T17:07:27;21.70;66.30
44121;DHT22;29783;52.504;13.478;2023-07-31T17:09:53;21.70;66.60
44121;DHT22;29783;52.504;13.478;2023-07-31T17:12:20;21.70;66.40
44121;DHT22;29783;52.504;13.478;2023-07-31T17:14:46;21.80;66.70
44121;DHT22;29783;52.504;13.478;2023-07-31T17:17:15;21.80;66.90
44121;DHT22;29783;52.504;13.478;2023-07-31T17:19:40;21.70;67.00
44121;DHT22;29783;52.504;13.478;2023-07-31T17:22:06;21.70;67.40
44121;DHT22;29783;52.504;13.478;2023-07-31T17:24:32;21.60;67.30
44121;DHT22;29783;52.504;13.478;2023-07-31T17:26:57;21.60;67.60
44121;DHT22;29783;52.504;13.478;2023-07-31T17:29:30;21.50;67.90
44121;DHT22;29783;52.504;13.478;2023-07-31T17:31:55;21.40;68.40
44121;DHT22;29783;52.504;13.478;2023-07-31T17:34:21;21.50;67.80
44121;DHT22;29783;52.504;13.478;2023-07-31T17:36:47;21.40;68.20
44121;DHT22;29783;52.504;13.478;2023-07-31T17:39:13;21.40;68.00
44121;DHT22;29783;52.504;13.478;2023-07-31T17:41:39;21.30;68.30
44121;DHT22;29783;52.504;13.478;2023-07-31T17:44:05;21.20;71.40
44121;DHT22;29783;52.504;13.478;2023-07-31T17:46:31;20.50;74.50